createdAt,value
2019-02-25T00:01:07.924Z,78.82
2019-02-25T00:03:34.231Z,79.25
2019-02-25T00:06:00.535Z,79.09
2019-02-25T00:08:26.860Z,79.16
2019-02-25T00:10:53.162Z,78.96
2019-02-25T00:13:19.475Z,79.02
2019-02-25T00:15:45.779Z,79.36
2019-02-25T00:18:12.091Z,79.49
2019-02-25T00:20:38.398Z,79.61
2019-02-25T00:23:04.735Z,79.55
2019-02-25T00:25:31.043Z,79.46
2019-02-25T00:27:57.351Z,79.56
2019-02-25T00:30:23.650Z,79.47
2019-02-25T00:32:49.960Z,79.52
2019-02-25T00:35:16.259Z,80.05
2019-02-25T00:37:42.584Z,80.08
2019-02-25T00:40:08.887Z,80.13
2019-02-25T00:42:35.203Z,80.24
2019-02-25T00:45:01.503Z,80.21
2019-02-25T00:47:27.807Z,80.49
2019-02-25T00:49:54.115Z,80.35
2019-02-25T00:52:20.424Z,80.52
2019-02-25T00:54:46.738Z,80.16
2019-02-25T00:57:13.045Z,80.33
2019-02-25T00:59:39.352Z,80.13
2019-02-25T01:02:05.670Z,79.97
2019-02-25T01:04:31.977Z,80.27
2019-02-25T01:06:58.284Z,80.33
2019-02-25T01:09:24.587Z,80.42
2019-02-25T01:11:50.896Z,80.52
2019-02-25T01:14:17.201Z,80.52
2019-02-25T01:16:43.756Z,80.67
2019-02-25T01:19:09.998Z,80.46
2019-02-25T01:21:36.564Z,80.42
2019-02-25T01:24:02.878Z,80.54
2019-02-25T01:26:29.193Z,80.61
2019-02-25T01:28:55.500Z,80.90
2019-02-25T01:31:21.803Z,81.03
2019-02-25T01:33:48.112Z,80.83
2019-02-25T01:36:14.416Z,80.45
2019-02-25T01:38:40.728Z,80.62
2019-02-25T01:41:07.057Z,80.63
2019-02-25T01:43:33.355Z,80.62
2019-02-25T01:45:59.666Z,80.77
2019-02-25T01:48:25.970Z,80.46
2019-02-25T01:50:52.281Z,80.47
2019-02-25T01:53:18.587Z,80.57
2019-02-25T01:55:44.899Z,80.38
2019-02-25T01:58:11.202Z,80.51
2019-02-25T02:00:37.520Z,80.67
2019-02-25T02:03:03.820Z,80.55
2019-02-25T02:05:30.129Z,80.53
2019-02-25T02:07:56.431Z,80.15
2019-02-25T02:10:22.740Z,79.72
2019-02-25T02:12:49.042Z,79.76
2019-02-25T02:15:15.425Z,79.81
2019-02-25T02:17:41.735Z,79.86
2019-02-25T02:20:08.027Z,79.86
2019-02-25T02:22:34.336Z,80.07
2019-02-25T02:25:00.641Z,79.45
2019-02-25T02:27:26.946Z,79.15
2019-02-25T02:29:53.252Z,79.15
2019-02-25T02:32:19.560Z,79.45
2019-02-25T02:34:45.871Z,79.29
2019-02-25T02:37:12.178Z,79.11
2019-02-25T02:39:38.481Z,79.50
2019-02-25T02:42:04.796Z,80.04
2019-02-25T02:44:31.102Z,80.14
2019-02-25T02:46:57.407Z,80.05
2019-02-25T02:49:23.716Z,80.03
2019-02-25T02:51:50.039Z,79.71
2019-02-25T02:54:16.337Z,79.74
2019-02-25T02:56:42.640Z,79.75
2019-02-25T02:59:08.957Z,79.85
2019-02-25T03:01:35.263Z,79.98
2019-02-25T03:04:01.569Z,80.31
2019-02-25T03:06:27.874Z,80.36
2019-02-25T03:08:54.178Z,80.61
2019-02-25T03:11:20.488Z,80.94
2019-02-25T03:13:46.797Z,81.14
2019-02-25T03:16:13.099Z,80.91
2019-02-25T03:18:39.406Z,81.12
2019-02-25T03:21:05.716Z,81.18
2019-02-25T03:23:32.026Z,81.04
2019-02-25T03:25:58.335Z,81.26
2019-02-25T03:28:24.649Z,81.43
2019-02-25T03:30:50.957Z,81.56
2019-02-25T03:33:17.293Z,81.34
2019-02-25T03:35:43.616Z,81.29
2019-02-25T03:38:09.926Z,81.31
2019-02-25T03:40:36.243Z,81.03
2019-02-25T03:43:02.542Z,81.06
2019-02-25T03:45:28.849Z,80.60
2019-02-25T03:47:55.156Z,80.23
2019-02-25T03:50:21.476Z,79.95
2019-02-25T03:52:47.766Z,79.85
2019-02-25T03:55:14.073Z,79.78
2019-02-25T03:57:40.383Z,79.77
2019-02-25T04:00:06.688Z,79.99
2019-02-25T04:02:33.000Z,79.77
2019-02-25T04:04:59.314Z,79.93
2019-02-25T04:07:25.637Z,79.75
2019-02-25T04:09:51.936Z,79.67
2019-02-25T04:12:18.246Z,79.58
2019-02-25T04:14:44.550Z,79.63
2019-02-25T04:17:10.857Z,79.36
2019-02-25T04:19:37.163Z,79.03
2019-02-25T04:22:03.471Z,79.07
2019-02-25T04:24:29.780Z,78.90
2019-02-25T04:26:56.079Z,78.94
2019-02-25T04:29:22.398Z,78.59
2019-02-25T04:31:48.709Z,78.50
2019-02-25T04:34:15.039Z,78.31
2019-02-25T04:36:41.344Z,78.41
2019-02-25T04:39:07.658Z,78.39
2019-02-25T04:41:33.959Z,78.23
2019-02-25T04:44:00.272Z,77.93
2019-02-25T04:46:26.572Z,78.06
2019-02-25T04:48:52.885Z,77.58
2019-02-25T04:51:19.212Z,77.68
2019-02-25T04:53:45.520Z,77.72
2019-02-25T04:56:11.842Z,77.80
2019-02-25T04:58:38.149Z,77.66
2019-02-25T05:01:04.452Z,77.84
2019-02-25T05:03:30.760Z,77.56
2019-02-25T05:05:57.063Z,77.39
2019-02-25T05:08:23.371Z,77.05
2019-02-25T05:10:49.675Z,77.13
2019-02-25T05:13:15.983Z,77.14
2019-02-25T05:15:42.287Z,77.55
2019-02-25T05:18:08.596Z,77.61
2019-02-25T05:20:34.900Z,77.33
2019-02-25T05:23:01.205Z,77.09
2019-02-25T05:25:27.519Z,77.13
2019-02-25T05:27:53.827Z,77.13
2019-02-25T05:30:20.137Z,76.80
2019-02-25T05:32:46.459Z,76.74
2019-02-25T05:35:12.814Z,76.83
2019-02-25T05:37:39.093Z,76.50
2019-02-25T05:40:05.395Z,75.56
2019-02-25T05:42:31.710Z,74.44
2019-02-25T05:44:58.015Z,74.13
2019-02-25T05:47:24.331Z,73.56
2019-02-25T05:49:50.632Z,72.94
2019-02-25T05:52:16.941Z,72.08
2019-02-25T05:54:43.246Z,71.05
2019-02-25T05:57:09.579Z,72.79
2019-02-25T05:59:35.888Z,74.29
2019-02-25T06:02:02.200Z,72.32
2019-02-25T06:04:28.557Z,69.60
2019-02-25T06:06:54.947Z,68.63
2019-02-25T06:09:21.181Z,68.54
2019-02-25T06:11:47.488Z,68.40
2019-02-25T06:14:13.801Z,68.36
2019-02-25T06:16:40.118Z,68.57
2019-02-25T06:19:06.432Z,69.03
2019-02-25T06:21:32.737Z,68.63
2019-02-25T06:23:59.047Z,66.75
2019-02-25T06:26:27.287Z,66.00
2019-02-25T06:28:53.672Z,65.34
2019-02-25T06:31:19.945Z,63.96
2019-02-25T06:33:47.570Z,65.15
2019-02-25T06:36:12.556Z,63.69
2019-02-25T06:38:38.941Z,64.06
2019-02-25T06:41:05.251Z,63.87
2019-02-25T06:43:31.557Z,63.01
2019-02-25T06:45:57.873Z,61.71
2019-02-25T06:48:24.186Z,60.77
2019-02-25T06:50:50.513Z,60.78
2019-02-25T06:53:16.943Z,59.74
2019-02-25T06:55:43.323Z,58.81
2019-02-25T06:58:09.628Z,58.84
2019-02-25T07:00:36.077Z,58.80
2019-02-25T07:03:02.364Z,57.49
2019-02-25T07:05:29.043Z,57.99
2019-02-25T07:07:55.389Z,57.48
2019-02-25T07:10:21.689Z,58.41
2019-02-25T07:12:47.997Z,57.79
2019-02-25T07:15:14.334Z,57.32
2019-02-25T07:17:40.645Z,58.13
2019-02-25T07:20:06.955Z,57.94
2019-02-25T07:22:33.266Z,57.29
2019-02-25T07:24:59.631Z,57.19
2019-02-25T07:27:25.940Z,56.80
2019-02-25T07:29:52.253Z,55.30
2019-02-25T07:32:18.565Z,54.86
2019-02-25T07:34:44.880Z,54.73
2019-02-25T07:37:11.190Z,54.62
2019-02-25T07:39:37.501Z,53.67
2019-02-25T07:42:03.865Z,54.38
2019-02-25T07:44:30.211Z,54.35
2019-02-25T07:46:56.528Z,54.43
2019-02-25T07:49:22.832Z,54.79
2019-02-25T07:51:49.147Z,54.64
2019-02-25T07:54:15.468Z,52.98
2019-02-25T07:56:41.781Z,51.71
2019-02-25T07:59:08.092Z,51.52
2019-02-25T08:01:34.425Z,50.53
2019-02-25T08:04:00.741Z,49.33
2019-02-25T08:06:27.057Z,49.89
2019-02-25T08:08:53.394Z,50.41
2019-02-25T08:11:21.744Z,49.35
2019-02-25T08:13:46.023Z,49.77
2019-02-25T08:16:12.329Z,49.25
2019-02-25T08:18:38.643Z,48.22
2019-02-25T08:21:04.964Z,46.80
2019-02-25T08:23:31.347Z,45.81
2019-02-25T08:25:57.657Z,44.47
2019-02-25T08:28:23.979Z,44.75
2019-02-25T08:30:50.293Z,45.04
2019-02-25T08:33:16.614Z,46.08
2019-02-25T08:35:42.939Z,44.23
2019-02-25T08:38:09.243Z,41.37
2019-02-25T08:40:35.553Z,42.89
2019-02-25T08:43:01.874Z,43.04
2019-02-25T08:45:28.183Z,42.47
2019-02-25T08:47:54.495Z,42.21
2019-02-25T08:50:20.844Z,41.48
2019-02-25T08:52:47.160Z,41.68
2019-02-25T08:55:13.464Z,41.75
2019-02-25T08:57:39.779Z,41.51
2019-02-25T09:00:06.089Z,43.19
2019-02-25T09:02:32.401Z,42.35
2019-02-25T09:04:58.713Z,42.38
2019-02-25T09:07:25.023Z,41.74
2019-02-25T09:09:51.328Z,42.14
2019-02-25T09:12:17.661Z,41.20
2019-02-25T09:14:43.970Z,40.48
2019-02-25T09:17:12.480Z,40.14
2019-02-25T09:19:36.637Z,39.86
2019-02-25T09:22:02.962Z,40.24
2019-02-25T09:24:29.256Z,39.99
2019-02-25T09:26:55.696Z,38.59
2019-02-25T09:29:22.081Z,35.14
2019-02-25T09:31:48.400Z,36.36
2019-02-25T09:34:14.703Z,35.50
2019-02-25T09:36:41.016Z,33.96
2019-02-25T09:39:07.324Z,32.31
2019-02-25T09:41:33.685Z,31.72
2019-02-25T09:44:00.000Z,31.07
2019-02-25T09:46:26.311Z,30.44
2019-02-25T09:48:52.616Z,32.29
2019-02-25T09:51:18.934Z,32.24
2019-02-25T09:53:48.016Z,33.03
2019-02-25T09:56:14.332Z,33.50
2019-02-25T09:58:40.646Z,33.43
2019-02-25T10:01:06.951Z,33.48
2019-02-25T10:03:33.270Z,32.56
2019-02-25T10:05:59.581Z,31.91
2019-02-25T10:08:25.891Z,30.98
2019-02-25T10:10:52.195Z,31.12
2019-02-25T10:13:18.532Z,31.27
2019-02-25T10:15:44.839Z,31.20
2019-02-25T10:18:11.144Z,32.01
2019-02-25T10:20:37.469Z,31.79
2019-02-25T10:23:03.777Z,32.06
2019-02-25T10:25:30.089Z,31.47
2019-02-25T10:27:56.402Z,31.19
2019-02-25T10:30:22.860Z,31.71
2019-02-25T10:32:49.167Z,31.43
2019-02-25T10:35:15.482Z,32.49
2019-02-25T10:37:43.670Z,32.44
2019-02-25T10:40:08.121Z,33.11
2019-02-25T10:42:36.100Z,33.40
2019-02-25T10:45:02.539Z,33.71
2019-02-25T10:47:27.049Z,34.90
2019-02-25T10:49:53.362Z,35.37
2019-02-25T10:52:19.667Z,35.64
2019-02-25T10:54:47.794Z,35.46
2019-02-25T10:57:12.321Z,35.01
2019-02-25T10:59:39.529Z,36.25
2019-02-25T11:02:04.929Z,35.84
2019-02-25T11:04:31.240Z,35.90
2019-02-25T11:06:58.979Z,36.48
2019-02-25T11:09:23.867Z,35.75
2019-02-25T11:11:50.688Z,36.28
2019-02-25T11:14:16.505Z,36.48
2019-02-25T11:16:44.000Z,36.26
2019-02-25T11:19:09.142Z,37.30
2019-02-25T11:21:37.518Z,36.70
2019-02-25T11:24:01.780Z,36.65
2019-02-25T11:26:28.885Z,37.00
2019-02-25T11:28:54.453Z,38.26
2019-02-25T11:31:24.042Z,38.23
2019-02-25T11:33:47.081Z,38.20
2019-02-25T11:36:15.436Z,38.03
2019-02-25T11:38:39.697Z,37.99
2019-02-25T11:41:07.167Z,37.73
2019-02-25T11:43:32.345Z,36.33
2019-02-25T11:45:58.641Z,35.75
2019-02-25T11:48:24.979Z,35.54
2019-02-25T11:50:51.317Z,35.64
2019-02-25T11:53:17.629Z,36.92
2019-02-25T11:55:43.938Z,36.09
2019-02-25T11:58:10.256Z,35.82
2019-02-25T12:00:36.564Z,36.25
2019-02-25T12:03:02.918Z,36.38
2019-02-25T12:05:29.238Z,37.07
2019-02-25T12:07:55.548Z,37.26
2019-02-25T12:10:21.868Z,37.72
2019-02-25T12:12:48.167Z,37.32
2019-02-25T12:15:14.477Z,37.99
2019-02-25T12:17:40.822Z,37.59
2019-02-25T12:20:07.101Z,36.87
2019-02-25T12:22:33.422Z,35.09
2019-02-25T12:24:59.810Z,34.27
2019-02-25T12:27:26.162Z,34.73
2019-02-25T12:29:52.470Z,35.23
2019-02-25T12:32:18.781Z,35.56
2019-02-25T12:34:45.087Z,35.52
2019-02-25T12:37:11.397Z,36.03
2019-02-25T12:39:37.707Z,35.56
2019-02-25T12:42:04.014Z,35.27
2019-02-25T12:44:30.326Z,35.57
2019-02-25T12:46:56.640Z,34.83
2019-02-25T12:49:22.941Z,34.46
2019-02-25T12:51:49.252Z,33.80
2019-02-25T12:54:15.571Z,35.28
2019-02-25T12:56:41.883Z,35.86
2019-02-25T12:59:08.244Z,35.95
2019-02-25T13:01:34.558Z,36.51
2019-02-25T13:04:00.870Z,36.99
2019-02-25T13:06:27.176Z,37.56
2019-02-25T13:08:53.486Z,38.17
2019-02-25T13:11:20.157Z,38.04
2019-02-25T13:13:46.484Z,39.28
2019-02-25T13:16:12.790Z,38.96
2019-02-25T13:18:39.095Z,37.26
2019-02-25T13:21:05.407Z,37.29
2019-02-25T13:23:31.715Z,36.68
2019-02-25T13:26:07.146Z,36.28
2019-02-25T13:28:26.225Z,36.38
2019-02-25T13:30:50.709Z,36.39
2019-02-25T13:33:17.025Z,37.11
2019-02-25T13:35:43.329Z,38.34
2019-02-25T13:38:09.660Z,39.72
2019-02-25T13:40:35.979Z,40.18
2019-02-25T13:43:02.285Z,40.57
2019-02-25T13:45:28.592Z,41.13
2019-02-25T13:47:54.902Z,41.47
2019-02-25T13:50:21.223Z,41.22
2019-02-25T13:52:48.165Z,41.37
2019-02-25T13:55:13.851Z,41.16
2019-02-25T13:57:40.161Z,41.20
2019-02-25T14:00:06.464Z,41.97
2019-02-25T14:02:32.777Z,42.64
2019-02-25T14:04:59.083Z,43.58
2019-02-25T14:07:25.398Z,43.07
2019-02-25T14:09:51.707Z,42.65
2019-02-25T14:12:18.019Z,43.37
2019-02-25T14:14:44.330Z,44.20
2019-02-25T14:17:10.693Z,45.53
2019-02-25T14:19:36.996Z,46.06
2019-02-25T14:22:03.611Z,45.89
2019-02-25T14:24:29.936Z,45.46
2019-02-25T14:26:56.248Z,46.39
2019-02-25T14:29:26.193Z,47.07
2019-02-25T14:31:50.950Z,47.34
2019-02-25T14:34:15.178Z,47.21
2019-02-25T14:36:41.492Z,47.54
2019-02-25T14:39:07.801Z,48.61
2019-02-25T14:41:34.121Z,48.22
2019-02-25T14:44:00.432Z,48.04
2019-02-25T14:46:26.884Z,47.73
2019-02-25T14:48:53.043Z,48.14
2019-02-25T14:51:19.360Z,48.45
2019-02-25T14:53:47.449Z,48.83
2019-02-25T14:56:12.012Z,48.67
2019-02-25T14:58:40.205Z,48.14
2019-02-25T15:01:04.611Z,48.93
2019-02-25T15:03:30.919Z,49.23
2019-02-25T15:05:59.143Z,49.01
2019-02-25T15:08:24.111Z,49.82
2019-02-25T15:10:49.855Z,49.56
2019-02-25T15:13:16.164Z,49.91
2019-02-25T15:15:44.082Z,49.70
2019-02-25T15:18:08.814Z,50.16
2019-02-25T15:20:35.111Z,50.49
2019-02-25T15:23:01.422Z,50.56
2019-02-25T15:25:31.178Z,50.67
2019-02-25T15:27:54.034Z,50.93
2019-02-25T15:30:20.709Z,51.06
2019-02-25T15:32:55.650Z,51.81
2019-02-25T15:35:12.944Z,50.91
2019-02-25T15:37:40.622Z,51.13
2019-02-25T15:40:05.560Z,51.02
2019-02-25T15:42:32.418Z,50.37
2019-02-25T15:44:58.199Z,50.53
2019-02-25T15:47:24.515Z,50.65
2019-02-25T15:49:50.823Z,49.91
2019-02-25T15:52:18.798Z,49.89
2019-02-25T15:54:43.796Z,49.54
2019-02-25T15:57:09.774Z,48.91
2019-02-25T15:59:36.091Z,48.90
2019-02-25T16:02:03.467Z,48.87
2019-02-25T16:04:30.214Z,49.21
2019-02-25T16:06:57.422Z,49.49
2019-02-25T16:09:23.830Z,50.17
2019-02-25T16:11:48.177Z,50.41
2019-02-25T16:14:14.514Z,50.33
2019-02-25T16:16:40.847Z,50.07
2019-02-25T16:19:07.221Z,50.13
2019-02-25T16:21:33.688Z,50.32
2019-02-25T16:24:02.023Z,50.35
2019-02-25T16:26:26.386Z,50.32
2019-02-25T16:28:53.214Z,50.24
2019-02-25T16:31:19.032Z,50.46
2019-02-25T16:33:46.723Z,50.59
2019-02-25T16:36:11.663Z,50.08
2019-02-25T16:38:38.065Z,49.72
2019-02-25T16:41:06.228Z,50.02
2019-02-25T16:43:31.497Z,50.06
2019-02-25T16:45:59.482Z,50.44
2019-02-25T16:48:26.058Z,50.48
2019-02-25T16:50:50.664Z,50.70
2019-02-25T16:53:18.295Z,50.68
2019-02-25T16:55:45.069Z,50.78
2019-02-25T16:58:12.917Z,50.24
2019-02-25T17:00:37.261Z,49.99
2019-02-25T17:03:04.303Z,49.61
2019-02-25T17:05:28.631Z,50.13
2019-02-25T17:07:56.106Z,50.66
2019-02-25T17:10:24.148Z,50.62
2019-02-25T17:12:48.270Z,51.44
2019-02-25T17:15:14.000Z,50.91
2019-02-25T17:17:40.313Z,51.06
2019-02-25T17:20:10.509Z,51.65
2019-02-25T17:22:33.327Z,51.96
2019-02-25T17:25:00.306Z,52.04
2019-02-25T17:27:25.942Z,52.30
2019-02-25T17:29:53.851Z,52.30
2019-02-25T17:32:19.374Z,52.07
2019-02-25T17:34:44.873Z,51.98
2019-02-25T17:37:12.639Z,52.50
2019-02-25T17:39:38.029Z,52.28
2019-02-25T17:42:05.582Z,52.45
2019-02-25T17:44:32.025Z,52.97
2019-02-25T17:46:57.926Z,53.08
2019-02-25T17:49:22.799Z,53.25
2019-02-25T17:51:51.143Z,53.52
2019-02-25T17:54:16.877Z,53.80
2019-02-25T17:56:43.147Z,53.62
2019-02-25T17:59:09.634Z,53.29
2019-02-25T18:01:34.341Z,53.18
2019-02-25T18:04:02.539Z,53.30
2019-02-25T18:06:30.148Z,53.06
2019-02-25T18:08:55.293Z,53.18
2019-02-25T18:11:20.285Z,53.50
2019-02-25T18:13:46.779Z,53.64
2019-02-25T18:16:14.009Z,53.71
2019-02-25T18:18:39.178Z,54.06
2019-02-25T18:21:06.369Z,53.94
2019-02-25T18:23:31.180Z,53.54
2019-02-25T18:25:58.737Z,53.46
2019-02-25T18:28:23.812Z,53.67
2019-02-25T18:30:50.122Z,54.03
2019-02-25T18:33:17.409Z,54.58
2019-02-25T18:35:43.433Z,54.99
2019-02-25T18:38:09.637Z,55.43
2019-02-25T18:40:36.462Z,55.79
2019-02-25T18:43:02.362Z,56.39
2019-02-25T18:45:29.047Z,56.57
2019-02-25T18:47:55.419Z,56.82
2019-02-25T18:50:22.220Z,57.02
2019-02-25T18:52:48.056Z,56.96
2019-02-25T18:55:14.432Z,56.90
2019-02-25T18:57:41.709Z,57.01
2019-02-25T19:00:07.065Z,56.88
2019-02-25T19:02:33.697Z,56.58
2019-02-25T19:05:01.420Z,56.56
2019-02-25T19:07:27.308Z,56.42
2019-02-25T19:09:53.856Z,56.57
2019-02-25T19:12:18.643Z,56.76
2019-02-25T19:14:44.976Z,56.71
2019-02-25T19:17:11.291Z,56.96
2019-02-25T19:19:38.465Z,56.81
2019-02-25T19:22:05.870Z,57.34
2019-02-25T19:24:33.258Z,56.97
2019-02-25T19:26:56.564Z,56.77
2019-02-25T19:29:23.837Z,56.49
2019-02-25T19:31:49.352Z,56.56
2019-02-25T19:34:16.725Z,56.70
2019-02-25T19:36:43.061Z,56.65
2019-02-25T19:39:10.049Z,56.79
2019-02-25T19:41:35.863Z,56.94
2019-02-25T19:44:04.111Z,56.79
2019-02-25T19:46:28.381Z,56.69
2019-02-25T19:48:56.009Z,56.71
2019-02-25T19:51:22.876Z,57.17
2019-02-25T19:53:47.543Z,61.30
2019-02-25T19:56:13.632Z,61.20
2019-02-25T19:58:41.110Z,59.38
2019-02-25T20:01:08.451Z,58.77
2019-02-25T20:03:33.067Z,57.46
2019-02-25T20:05:58.897Z,57.75
2019-02-25T20:08:25.194Z,57.12
2019-02-25T20:10:54.352Z,57.81
2019-02-25T20:13:17.849Z,58.39
2019-02-25T20:15:46.321Z,58.32
2019-02-25T20:18:11.792Z,56.50
2019-02-25T20:20:38.448Z,57.21
2019-02-25T20:23:04.407Z,57.54
2019-02-25T20:25:29.481Z,57.98
2019-02-25T20:27:59.896Z,58.50
2019-02-25T20:30:23.692Z,58.32
2019-02-25T20:32:48.430Z,58.29
2019-02-25T20:35:15.741Z,58.58
2019-02-25T20:37:41.149Z,58.55
2019-02-25T20:40:07.459Z,58.85
2019-02-25T20:42:33.798Z,58.93
2019-02-25T20:45:02.440Z,58.66
2019-02-25T20:47:28.503Z,58.80
2019-02-25T20:49:55.619Z,58.91
2019-02-25T20:52:20.225Z,58.77
2019-02-25T20:54:47.206Z,58.62
2019-02-25T20:57:12.577Z,58.08
2019-02-25T20:59:38.002Z,57.59
2019-02-25T21:02:07.188Z,57.23
2019-02-25T21:04:30.604Z,56.60
2019-02-25T21:06:56.916Z,56.47
2019-02-25T21:09:23.224Z,56.65
2019-02-25T21:11:49.570Z,56.21
2019-02-25T21:14:15.881Z,56.01
2019-02-25T21:16:42.225Z,56.24
2019-02-25T21:19:10.798Z,56.32
2019-02-25T21:21:36.728Z,56.25
2019-02-25T21:24:01.912Z,56.16
2019-02-25T21:26:29.468Z,56.37
2019-02-25T21:28:55.969Z,56.37
2019-02-25T21:31:21.383Z,56.26
2019-02-25T21:33:49.866Z,56.04
2019-02-25T21:36:12.743Z,56.16
2019-02-25T21:38:39.054Z,55.77
2019-02-25T21:41:06.976Z,55.68
2019-02-25T21:43:31.703Z,55.52
2019-02-25T21:46:00.956Z,55.50
2019-02-25T21:48:25.632Z,54.99
2019-02-25T21:50:50.648Z,55.20
2019-02-25T21:53:18.397Z,55.23
2019-02-25T21:55:43.351Z,55.12
2019-02-25T21:58:09.647Z,56.61
2019-02-25T22:00:38.603Z,55.76
2019-02-25T22:03:05.987Z,55.52
2019-02-25T22:05:28.610Z,56.57
2019-02-25T22:07:57.316Z,56.66
2019-02-25T22:10:21.239Z,55.63
2019-02-25T22:12:47.549Z,56.76
2019-02-25T22:15:15.905Z,55.54
2019-02-25T22:17:40.705Z,56.04
2019-02-25T22:20:09.555Z,55.55
2019-02-25T22:22:33.231Z,55.79
2019-02-25T22:25:04.078Z,56.02
2019-02-25T22:27:25.462Z,56.31
2019-02-25T22:29:51.804Z,56.50
2019-02-25T22:32:18.111Z,56.51
2019-02-25T22:34:44.416Z,56.61
2019-02-25T22:37:14.505Z,56.81
2019-02-25T22:39:38.380Z,56.95
2019-02-25T22:42:05.209Z,57.04
2019-02-25T22:44:31.761Z,57.21
2019-02-25T22:46:56.012Z,57.24
2019-02-25T22:49:24.094Z,57.67
2019-02-25T22:51:51.699Z,57.47
2019-02-25T22:54:17.040Z,57.85
2019-02-25T22:56:41.270Z,58.20
2019-02-25T22:59:07.585Z,58.03
2019-02-25T23:01:36.825Z,57.89
2019-02-25T23:04:00.263Z,57.93
2019-02-25T23:06:26.574Z,58.27
2019-02-25T23:08:53.304Z,58.22
2019-02-25T23:11:21.491Z,58.12
2019-02-25T23:13:47.447Z,58.07
2019-02-25T23:16:13.235Z,57.98
2019-02-25T23:18:38.143Z,58.23
2019-02-25T23:21:04.443Z,58.02
2019-02-25T23:23:32.883Z,58.06
2019-02-25T23:25:58.488Z,58.13
2019-02-25T23:28:25.410Z,58.21
2019-02-25T23:30:49.764Z,58.36
2019-02-25T23:33:17.430Z,58.29
2019-02-25T23:35:44.705Z,58.08
2019-02-25T23:38:08.735Z,58.08
2019-02-25T23:40:35.972Z,57.67
2019-02-25T23:43:03.224Z,57.60
2019-02-25T23:45:27.668Z,57.56
2019-02-25T23:47:57.634Z,57.62
2019-02-25T23:50:20.291Z,57.57
2019-02-25T23:52:46.633Z,57.01
2019-02-25T23:55:16.525Z,57.06
2019-02-25T23:57:39.265Z,59.73
